MOL Courage — C6WX5 — position and weather

sailwx.info

Track history (hours):
 
Tides and Currents Weather Stations Pressure Air Temp Water Temp Dewpoint Dewpoint Depression Visibility Wind Speed Wind Dir Waves Ship Positions

MOL Courage

Last reported at 2015-Mar-30 13:26 UTC. Time now 2015-Mar-30 23:08 UTC.
Position N 37°42' W 123°30'.

Length 316 m; draft 11.2 m.

Type: Ship (hazmat cat A). MMSI: 311001700.

Date/timePositionNaut miles runAvg speedWind from/ knotsBaromVisibWave heightAir tempDewpointWater temp
2015-Mar-30 13:26N 37°42' W 123°30'6 6.9
2015-Mar-30 12:32N 37°37' W 123°25'1010.0
2015-Mar-30 11:32N 37°29' W 123°17'1010.1
2015-Mar-30 10:31N 37°21' W 123°10'10 0.7
2015-Mar-29 21:18N 37°28' W 123°17'1310.3
2015-Mar-29 20:05N 37°17' W 123°09'710.5
2015-Mar-29 19:24N 37°11' W 123°05'8510.3
2015-Mar-29 11:08N 35°57' W 122°13'6 9.7
2015-Mar-29 10:28N 35°51' W 122°09'9 9.7
2015-Mar-29 09:32N 35°44' W 122°02'10410.3
2015-Mar-28 23:23N 34°24' W 120°41'5511.3
2015-Mar-28 18:30N 34°09' W 119°37'1111.6
2015-Mar-28 17:33N 34°06' W 119°24'3711.2
2015-Mar-28 14:14N 33°49' W 118°44'711.1
2015-Mar-28 13:34N 33°46' W 118°36'1111.1
2015-Mar-28 12:33N 33°40' W 118°24'8 7.8
2015-Mar-28 11:33N 33°41' W 118°15'5 4.9
2015-Mar-28 10:31N 33°46' W 118°17'0 0.5
2015-Mar-28 09:32N 33°46' W 118°16'0 0.0
2015-Mar-28 08:32N 33°46' W 118°16'0 0.0
2015-Mar-28 07:32N 33°46' W 118°16'0 0.0
2015-Mar-28 06:29N 33°46' W 118°16'0 0.0
2015-Mar-28 05:20N 33°46' W 118°16'0 0.0
2015-Mar-28 04:32N 33°46' W 118°16'0 0.1
2015-Mar-28 03:32N 33°46' W 118°16'0 0.1
2015-Mar-28 02:32N 33°46' W 118°16'0 0.0
2015-Mar-28 01:32N 33°46' W 118°16'0 0.0
2015-Mar-27 23:14N 33°46' W 118°16'0 0.0
2015-Mar-27 22:32N 33°46' W 118°16'0 0.0
2015-Mar-27 21:32N 33°46' W 118°16'0 0.0
2015-Mar-27 15:32N 33°46' W 118°16'0 0.0
2015-Mar-27 14:05N 33°46' W 118°16'0 0.0
2015-Mar-27 13:32N 33°46' W 118°16'0 0.0
2015-Mar-27 12:32N 33°46' W 118°16'0 0.0
2015-Mar-27 11:32N 33°46' W 118°16'0 0.0
2015-Mar-27 10:32N 33°46' W 118°16'0 0.0
2015-Mar-27 09:32N 33°46' W 118°16'0 0.0
2015-Mar-27 08:29N 33°46' W 118°16'0 0.0
2015-Mar-27 06:05N 33°46' W 118°16'0 0.0
2015-Mar-27 03:29N 33°46' W 118°16'0 0.0
2015-Mar-27 02:26N 33°46' W 118°16'0 0.0
2015-Mar-27 01:32N 33°46' W 118°16'0 0.0
2015-Mar-27 00:29N 33°46' W 118°16'0 0.0
2015-Mar-26 23:32N 33°46' W 118°16'0 0.0
2015-Mar-26 22:29N 33°46' W 118°16'0 0.0
2015-Mar-26 21:29N 33°46' W 118°16'0 0.0
2015-Mar-26 20:32N 33°46' W 118°16'0 0.0
2015-Mar-26 19:32N 33°46' W 118°16'0 0.0
2015-Mar-26 18:32N 33°46' W 118°16'0 0.0
2015-Mar-26 17:14N 33°46' W 118°16'0 0.0
2015-Mar-26 16:11N 33°46' W 118°16'0 0.0
2015-Mar-26 10:23N 33°46' W 118°16'0 0.0
2015-Mar-26 09:26N 33°46' W 118°16'0 0.0
2015-Mar-26 07:17N 33°46' W 118°16'0 0.0
2015-Mar-26 06:23N 33°46' W 118°16'0 0.0
2015-Mar-26 05:11N 33°46' W 118°16'0 0.0
2015-Mar-26 04:32N 33°46' W 118°16'0 0.0
2015-Mar-26 03:17N 33°46' W 118°16'0 0.0
2015-Mar-26 02:14N 33°46' W 118°16'0 0.0
2015-Mar-26 00:32N 33°46' W 118°16'0 0.0
2015-Mar-25 23:11N 33°46' W 118°16'0 0.0
2015-Mar-25 22:32N 33°46' W 118°16'0 0.0
2015-Mar-25 21:32N 33°46' W 118°16'0 0.0
2015-Mar-25 20:32N 33°46' W 118°16'0 0.0
2015-Mar-25 18:29N 33°46' W 118°16'0 0.0
2015-Mar-25 13:28N 33°46' W 118°16'0 0.0
2015-Mar-25 12:32N 33°46' W 118°16'0 0.0
2015-Mar-25 11:32N 33°46' W 118°16'0 0.2
2015-Mar-25 09:23N 33°46' W 118°16'0 0.0
2015-Mar-25 08:17N 33°46' W 118°16'0 0.0
2015-Mar-25 06:11N 33°46' W 118°16'0 0.0
2015-Mar-25 05:29N 33°46' W 118°16'0 0.0
2015-Mar-25 04:26N 33°46' W 118°16'0 0.0
2015-Mar-25 01:26N 33°46' W 118°16'0 0.0
2015-Mar-24 00:23N 33°46' W 118°16'  
Track history (hours):
 
Tides and Currents Weather Stations Pressure Air Temp Water Temp Dewpoint Dewpoint Depression Visibility Wind Speed Wind Dir Waves Ship Positions

MOL Courage

Last reported at 2015-Mar-30 13:26 UTC. Time now 2015-Mar-30 23:08 UTC.
Position N 37°42' W 123°30'.

Length 316 m; draft 11.2 m.

Type: Ship (hazmat cat A). MMSI: 311001700.

Date/timePositionNaut miles runAvg speedWind from/ knotsBaromVisibWave heightAir tempDewpointWater temp
2015-Mar-30 13:26N 37°42' W 123°30'6 6.9
2015-Mar-30 12:32N 37°37' W 123°25'1010.0
2015-Mar-30 11:32N 37°29' W 123°17'1010.1
2015-Mar-30 10:31N 37°21' W 123°10'10 0.7
2015-Mar-29 21:18N 37°28' W 123°17'1310.3
2015-Mar-29 20:05N 37°17' W 123°09'710.5
2015-Mar-29 19:24N 37°11' W 123°05'8510.3
2015-Mar-29 11:08N 35°57' W 122°13'6 9.7
2015-Mar-29 10:28N 35°51' W 122°09'9 9.7
2015-Mar-29 09:32N 35°44' W 122°02'10410.3
2015-Mar-28 23:23N 34°24' W 120°41'5511.3
2015-Mar-28 18:30N 34°09' W 119°37'1111.6
2015-Mar-28 17:33N 34°06' W 119°24'3711.2
2015-Mar-28 14:14N 33°49' W 118°44'711.1
2015-Mar-28 13:34N 33°46' W 118°36'1111.1
2015-Mar-28 12:33N 33°40' W 118°24'8 7.8
2015-Mar-28 11:33N 33°41' W 118°15'5 4.9
2015-Mar-28 10:31N 33°46' W 118°17'0 0.5
2015-Mar-28 09:32N 33°46' W 118°16'0 0.0
2015-Mar-28 08:32N 33°46' W 118°16'0 0.0
2015-Mar-28 07:32N 33°46' W 118°16'0 0.0
2015-Mar-28 06:29N 33°46' W 118°16'0 0.0
2015-Mar-28 05:20N 33°46' W 118°16'0 0.0
2015-Mar-28 04:32N 33°46' W 118°16'0 0.1
2015-Mar-28 03:32N 33°46' W 118°16'0 0.1
2015-Mar-28 02:32N 33°46' W 118°16'0 0.0
2015-Mar-28 01:32N 33°46' W 118°16'0 0.0
2015-Mar-27 23:14N 33°46' W 118°16'0 0.0
2015-Mar-27 22:32N 33°46' W 118°16'0 0.0
2015-Mar-27 21:32N 33°46' W 118°16'0 0.0
2015-Mar-27 15:32N 33°46' W 118°16'0 0.0
2015-Mar-27 14:05N 33°46' W 118°16'0 0.0
2015-Mar-27 13:32N 33°46' W 118°16'0 0.0
2015-Mar-27 12:32N 33°46' W 118°16'0 0.0
2015-Mar-27 11:32N 33°46' W 118°16'0 0.0
2015-Mar-27 10:32N 33°46' W 118°16'0 0.0
2015-Mar-27 09:32N 33°46' W 118°16'0 0.0
2015-Mar-27 08:29N 33°46' W 118°16'0 0.0
2015-Mar-27 06:05N 33°46' W 118°16'0 0.0
2015-Mar-27 03:29N 33°46' W 118°16'0 0.0
2015-Mar-27 02:26N 33°46' W 118°16'0 0.0
2015-Mar-27 01:32N 33°46' W 118°16'0 0.0
2015-Mar-27 00:29N 33°46' W 118°16'0 0.0
2015-Mar-26 23:32N 33°46' W 118°16'0 0.0
2015-Mar-26 22:29N 33°46' W 118°16'0 0.0
2015-Mar-26 21:29N 33°46' W 118°16'0 0.0
2015-Mar-26 20:32N 33°46' W 118°16'0 0.0
2015-Mar-26 19:32N 33°46' W 118°16'0 0.0
2015-Mar-26 18:32N 33°46' W 118°16'0 0.0
2015-Mar-26 17:14N 33°46' W 118°16'0 0.0
2015-Mar-26 16:11N 33°46' W 118°16'0 0.0
2015-Mar-26 10:23N 33°46' W 118°16'0 0.0
2015-Mar-26 09:26N 33°46' W 118°16'0 0.0
2015-Mar-26 07:17N 33°46' W 118°16'0 0.0
2015-Mar-26 06:23N 33°46' W 118°16'0 0.0
2015-Mar-26 05:11N 33°46' W 118°16'0 0.0
2015-Mar-26 04:32N 33°46' W 118°16'0 0.0
2015-Mar-26 03:17N 33°46' W 118°16'0 0.0
2015-Mar-26 02:14N 33°46' W 118°16'0 0.0
2015-Mar-26 00:32N 33°46' W 118°16'0 0.0
2015-Mar-25 23:11N 33°46' W 118°16'0 0.0
2015-Mar-25 22:32N 33°46' W 118°16'0 0.0
2015-Mar-25 21:32N 33°46' W 118°16'0 0.0
2015-Mar-25 20:32N 33°46' W 118°16'0 0.0
2015-Mar-25 18:29N 33°46' W 118°16'0 0.0
2015-Mar-25 13:28N 33°46' W 118°16'0 0.0
2015-Mar-25 12:32N 33°46' W 118°16'0 0.0
2015-Mar-25 11:32N 33°46' W 118°16'0 0.2
2015-Mar-25 09:23N 33°46' W 118°16'0 0.0
2015-Mar-25 08:17N 33°46' W 118°16'0 0.0
2015-Mar-25 06:11N 33°46' W 118°16'0 0.0
2015-Mar-25 05:29N 33°46' W 118°16'0 0.0
2015-Mar-25 04:26N 33°46' W 118°16'0 0.0
2015-Mar-25 01:26N 33°46' W 118°16'0 0.0
2015-Mar-24 00:23N 33°46' W 118°16'  

Dump ship's entire track history